sensor_id;sensor_type;location;lat;lon;timestamp;P1;durP1;ratioP1;P2;durP2;ratioP2
16826;SDS011;8530;49.540;8.576;2023-03-01T00:01:25;16.63;;;12.13;;
16826;SDS011;8530;49.540;8.576;2023-03-01T00:03:55;14.87;;;13.07;;
16826;SDS011;8530;49.540;8.576;2023-03-01T00:06:22;15.53;;;12.03;;
16826;SDS011;8530;49.540;8.576;2023-03-01T00:08:49;17.03;;;13.60;;
16826;SDS011;8530;49.540;8.576;2023-03-01T00:11:16;14.47;;;11.93;;
16826;SDS011;8530;49.540;8.576;2023-03-01T00:13:45;17.10;;;13.27;;
16826;SDS011;8530;49.540;8.576;2023-03-01T00:16:13;19.03;;;12.87;;
16826;SDS011;8530;49.540;8.576;2023-03-01T00:18:41;18.83;;;14.30;;
16826;SDS011;8530;49.540;8.576;2023-03-01T00:21:10;14.87;;;13.00;;
16826;SDS011;8530;49.540;8.576;2023-03-01T00:23:37;17.87;;;13.77;;
16826;SDS011;8530;49.540;8.576;2023-03-01T00:26:05;15.57;;;12.60;;
16826;SDS011;8530;49.540;8.576;2023-03-01T00:28:33;13.70;;;12.30;;
16826;SDS011;8530;49.540;8.576;2023-03-01T00:31:02;18.30;;;14.07;;
16826;SDS011;8530;49.540;8.576;2023-03-01T00:33:30;18.40;;;14.23;;
16826;SDS011;8530;49.540;8.576;2023-03-01T00:35:57;18.40;;;14.00;;
16826;SDS011;8530;49.540;8.576;2023-03-01T00:38:26;19.17;;;13.70;;
16826;SDS011;8530;49.540;8.576;2023-03-01T00:40:53;16.27;;;12.60;;
16826;SDS011;8530;49.540;8.576;2023-03-01T00:43:20;19.93;;;14.77;;
16826;SDS011;8530;49.540;8.576;2023-03-01T00:45:47;17.37;;;13.17;;
16826;SDS011;8530;49.540;8.576;2023-03-01T00:48:14;17.50;;;13.60;;
16826;SDS011;8530;49.540;8.576;2023-03-01T00:50:40;20.33;;;14.93;;
16826;SDS011;8530;49.540;8.576;2023-03-01T00:53:07;15.73;;;13.70;;
16826;SDS011;8530;49.540;8.576;2023-03-01T00:55:35;16.97;;;13.47;;
16826;SDS011;8530;49.540;8.576;2023-03-01T00:58:02;19.77;;;15.93;;
16826;SDS011;8530;49.540;8.576;2023-03-01T01:00:29;25.90;;;16.87;;
16826;SDS011;8530;49.540;8.576;2023-03-01T01:02:55;24.17;;;18.17;;
16826;SDS011;8530;49.540;8.576;2023-03-01T01:05:22;16.90;;;14.43;;
16826;SDS011;8530;49.540;8.576;2023-03-01T01:07:49;17.60;;;14.13;;
16826;SDS011;8530;49.540;8.576;2023-03-01T01:10:15;21.83;;;17.27;;
16826;SDS011;8530;49.540;8.576;2023-03-01T01:12:44;23.07;;;16.30;;
16826;SDS011;8530;49.540;8.576;2023-03-01T01:15:12;19.90;;;15.57;;
16826;SDS011;8530;49.540;8.576;2023-03-01T01:17:41;24.23;;;16.67;;
16826;SDS011;8530;49.540;8.576;2023-03-01T01:20:08;21.70;;;15.57;;
16826;SDS011;8530;49.540;8.576;2023-03-01T01:22:36;22.70;;;15.27;;
16826;SDS011;8530;49.540;8.576;2023-03-01T01:25:03;23.83;;;18.20;;
16826;SDS011;8530;49.540;8.576;2023-03-01T01:27:30;25.93;;;20.23;;
16826;SDS011;8530;49.540;8.576;2023-03-01T01:29:58;22.97;;;17.37;;
16826;SDS011;8530;49.540;8.576;2023-03-01T01:32:24;22.90;;;17.30;;
16826;SDS011;8530;49.540;8.576;2023-03-01T01:34:51;20.90;;;16.60;;
16826;SDS011;8530;49.540;8.576;2023-03-01T01:37:18;26.50;;;18.27;;
16826;SDS011;8530;49.540;8.576;2023-03-01T01:39:45;25.37;;;17.23;;
16826;SDS011;8530;49.540;8.576;2023-03-01T01:42:12;19.70;;;15.17;;
16826;SDS011;8530;49.540;8.576;2023-03-01T01:44:42;23.90;;;16.40;;
16826;SDS011;8530;49.540;8.576;2023-03-01T01:47:13;19.03;;;15.60;;
16826;SDS011;8530;49.540;8.576;2023-03-01T01:49:44;24.80;;;14.67;;
16826;SDS011;8530;49.540;8.576;2023-03-01T01:52:16;17.63;;;14.43;;
16826;SDS011;8530;49.540;8.576;2023-03-01T01:54:46;19.90;;;14.90;;
16826;SDS011;8530;49.540;8.576;2023-03-01T01:57:18;20.70;;;15.73;;
16826;SDS011;8530;49.540;8.576;2023-03-01T01:59:50;20.83;;;15.83;;
16826;SDS011;8530;49.540;8.576;2023-03-01T02:02:21;19.70;;;15.43;;
16826;SDS011;8530;49.540;8.576;2023-03-01T02:04:48;19.27;;;15.10;;
16826;SDS011;8530;49.540;8.576;2023-03-01T02:07:19;20.57;;;14.60;;
16826;SDS011;8530;49.540;8.576;2023-03-01T02:09:51;22.53;;;16.50;;
16826;SDS011;8530;49.540;8.576;2023-03-01T02:12:19;17.83;;;14.90;;
16826;SDS011;8530;49.540;8.576;2023-03-01T02:14:49;21.60;;;17.73;;
16826;SDS011;8530;49.540;8.576;2023-03-01T02:17:16;26.80;;;17.43;;
16826;SDS011;8530;49.540;8.576;2023-03-01T02:19:48;21.50;;;16.23;;
16826;SDS011;8530;49.540;8.576;2023-03-01T02:22:23;22.50;;;16.67;;
16826;SDS011;8530;49.540;8.576;2023-03-01T02:24:56;18.93;;;16.00;;
16826;SDS011;8530;49.540;8.576;2023-03-01T02:27:33;22.00;;;15.67;;
16826;SDS011;8530;49.540;8.576;2023-03-01T02:30:08;19.60;;;16.10;;
16826;SDS011;8530;49.540;8.576;2023-03-01T02:32:37;17.03;;;14.57;;
16826;SDS011;8530;49.540;8.576;2023-03-01T02:35:07;20.60;;;15.80;;
16826;SDS011;8530;49.540;8.576;2023-03-01T02:37:36;20.90;;;17.10;;
16826;SDS011;8530;49.540;8.576;2023-03-01T02:40:05;20.17;;;16.50;;
16826;SDS011;8530;49.540;8.576;2023-03-01T02:42:36;20.90;;;15.83;;
16826;SDS011;8530;49.540;8.576;2023-03-01T02:45:13;18.60;;;15.80;;
16826;SDS011;8530;49.540;8.576;2023-03-01T02:47:39;26.00;;;17.70;;
16826;SDS011;8530;49.540;8.576;2023-03-01T02:50:11;25.40;;;17.73;;
16826;SDS011;8530;49.540;8.576;2023-03-01T02:52:47;25.57;;;18.17;;
16826;SDS011;8530;49.540;8.576;2023-03-01T02:55:22;23.77;;;17.87;;
16826;SDS011;8530;49.540;8.576;2023-03-01T02:57:49;25.03;;;17.77;;
16826;SDS011;8530;49.540;8.576;2023-03-01T03:00:18;21.43;;;18.33;;
16826;SDS011;8530;49.540;8.576;2023-03-01T03:02:47;23.20;;;16.97;;
16826;SDS011;8530;49.540;8.576;2023-03-01T03:05:15;23.70;;;17.83;;
16826;SDS011;8530;49.540;8.576;2023-03-01T03:07:44;19.70;;;15.73;;
16826;SDS011;8530;49.540;8.576;2023-03-01T03:10:12;24.03;;;16.97;;
16826;SDS011;8530;49.540;8.576;2023-03-01T03:12:41;19.33;;;15.50;;
16826;SDS011;8530;49.540;8.576;2023-03-01T03:15:09;22.53;;;16.90;;
16826;SDS011;8530;49.540;8.576;2023-03-01T03:17:39;21.50;;;17.37;;
16826;SDS011;8530;49.540;8.576;2023-03-01T03:20:08;18.47;;;15.50;;
16826;SDS011;8530;49.540;8.576;2023-03-01T03:22:37;17.43;;;14.87;;
16826;SDS011;8530;49.540;8.576;2023-03-01T03:25:04;23.10;;;16.30;;
16826;SDS011;8530;49.540;8.576;2023-03-01T03:27:35;20.13;;;17.73;;
16826;SDS011;8530;49.540;8.576;2023-03-01T03:30:02;25.87;;;17.10;;
16826;SDS011;8530;49.540;8.576;2023-03-01T03:32:33;23.90;;;16.70;;
16826;SDS011;8530;49.540;8.576;2023-03-01T03:35:02;21.73;;;16.53;;
16826;SDS011;8530;49.540;8.576;2023-03-01T03:37:33;19.47;;;15.80;;
16826;SDS011;8530;49.540;8.576;2023-03-01T03:40:18;22.90;;;16.57;;
16826;SDS011;8530;49.540;8.576;2023-03-01T03:42:44;20.67;;;15.17;;
16826;SDS011;8530;49.540;8.576;2023-03-01T03:45:11;19.90;;;14.10;;
16826;SDS011;8530;49.540;8.576;2023-03-01T03:47:38;17.87;;;15.50;;
16826;SDS011;8530;49.540;8.576;2023-03-01T03:50:06;22.20;;;17.40;;
16826;SDS011;8530;49.540;8.576;2023-03-01T03:52:34;18.60;;;15.50;;
16826;SDS011;8530;49.540;8.576;2023-03-01T03:55:01;19.40;;;16.47;;
16826;SDS011;8530;49.540;8.576;2023-03-01T03:57:27;22.70;;;16.53;;
16826;SDS011;8530;49.540;8.576;2023-03-01T03:59:54;22.17;;;17.27;;
16826;SDS011;8530;49.540;8.576;2023-03-01T04:02:21;22.30;;;16.40;;
16826;SDS011;8530;49.540;8.576;2023-03-01T04:04:47;20.73;;;15.33;;
16826;SDS011;8530;49.540;8.576;2023-03-01T04:07:16;19.87;;;15.07;;
16826;SDS011;8530;49.540;8.576;2023-03-01T04:09:43;21.17;;;17.47;;
16826;SDS011;8530;49.540;8.576;2023-03-01T04:12:10;18.43;;;15.40;;
16826;SDS011;8530;49.540;8.576;2023-03-01T04:14:37;23.70;;;17.80;;
16826;SDS011;8530;49.540;8.576;2023-03-01T04:17:03;20.23;;;16.80;;
16826;SDS011;8530;49.540;8.576;2023-03-01T04:19:30;22.17;;;15.33;;
16826;SDS011;8530;49.540;8.576;2023-03-01T04:22:00;21.40;;;16.80;;
16826;SDS011;8530;49.540;8.576;2023-03-01T04:24:33;26.60;;;18.13;;
16826;SDS011;8530;49.540;8.576;2023-03-01T04:27:00;20.90;;;17.07;;
16826;SDS011;8530;49.540;8.576;2023-03-01T04:29:27;25.83;;;19.10;;
16826;SDS011;8530;49.540;8.576;2023-03-01T04:31:54;21.23;;;16.97;;
16826;SDS011;8530;49.540;8.576;2023-03-01T04:34:21;23.80;;;16.83;;
16826;SDS011;8530;49.540;8.576;2023-03-01T04:36:47;28.17;;;18.40;;
16826;SDS011;8530;49.540;8.576;2023-03-01T04:39:14;24.03;;;18.10;;
16826;SDS011;8530;49.540;8.576;2023-03-01T04:41:42;25.63;;;19.40;;
16826;SDS011;8530;49.540;8.576;2023-03-01T04:44:09;29.73;;;20.47;;
16826;SDS011;8530;49.540;8.576;2023-03-01T04:46:36;27.90;;;18.57;;
16826;SDS011;8530;49.540;8.576;2023-03-01T04:49:02;25.80;;;19.20;;
16826;SDS011;8530;49.540;8.576;2023-03-01T04:51:30;28.00;;;19.07;;
16826;SDS011;8530;49.540;8.576;2023-03-01T04:53:57;28.53;;;19.73;;
16826;SDS011;8530;49.540;8.576;2023-03-01T04:56:25;25.27;;;18.40;;
16826;SDS011;8530;49.540;8.576;2023-03-01T04:58:54;24.60;;;19.40;;
16826;SDS011;8530;49.540;8.576;2023-03-01T05:01:20;24.30;;;19.90;;
16826;SDS011;8530;49.540;8.576;2023-03-01T05:03:48;29.13;;;19.80;;
16826;SDS011;8530;49.540;8.576;2023-03-01T05:06:19;27.40;;;20.33;;
16826;SDS011;8530;49.540;8.576;2023-03-01T05:08:46;27.77;;;19.80;;
16826;SDS011;8530;49.540;8.576;2023-03-01T05:11:13;27.27;;;18.97;;
16826;SDS011;8530;49.540;8.576;2023-03-01T05:13:40;27.47;;;21.00;;
16826;SDS011;8530;49.540;8.576;2023-03-01T05:16:09;26.30;;;19.60;;
16826;SDS011;8530;49.540;8.576;2023-03-01T05:18:37;27.63;;;18.37;;
16826;SDS011;8530;49.540;8.576;2023-03-01T05:21:04;28.67;;;19.53;;
16826;SDS011;8530;49.540;8.576;2023-03-01T05:23:33;26.97;;;20.53;;
16826;SDS011;8530;49.540;8.576;2023-03-01T05:26:01;27.20;;;19.63;;
16826;SDS011;8530;49.540;8.576;2023-03-01T05:28:28;28.90;;;18.97;;
16826;SDS011;8530;49.540;8.576;2023-03-01T05:30:56;27.10;;;20.33;;
16826;SDS011;8530;49.540;8.576;2023-03-01T05:33:24;28.57;;;20.03;;
16826;SDS011;8530;49.540;8.576;2023-03-01T05:35:52;27.23;;;19.53;;
16826;SDS011;8530;49.540;8.576;2023-03-01T05:38:20;26.57;;;21.00;;
16826;SDS011;8530;49.540;8.576;2023-03-01T05:40:47;25.17;;;20.00;;
16826;SDS011;8530;49.540;8.576;2023-03-01T05:43:15;29.30;;;20.60;;
16826;SDS011;8530;49.540;8.576;2023-03-01T05:45:43;29.83;;;20.50;;
16826;SDS011;8530;49.540;8.576;2023-03-01T05:48:10;26.30;;;19.43;;
16826;SDS011;8530;49.540;8.576;2023-03-01T05:50:39;41.40;;;22.00;;
16826;SDS011;8530;49.540;8.576;2023-03-01T05:53:09;25.93;;;18.80;;
16826;SDS011;8530;49.540;8.576;2023-03-01T05:55:37;25.47;;;20.70;;
16826;SDS011;8530;49.540;8.576;2023-03-01T05:58:04;25.53;;;18.93;;
16826;SDS011;8530;49.540;8.576;2023-03-01T06:00:33;30.97;;;19.03;;
16826;SDS011;8530;49.540;8.576;2023-03-01T06:03:00;33.80;;;21.60;;
16826;SDS011;8530;49.540;8.576;2023-03-01T06:05:27;31.83;;;21.20;;
16826;SDS011;8530;49.540;8.576;2023-03-01T06:07:57;25.37;;;18.97;;
16826;SDS011;8530;49.540;8.576;2023-03-01T06:10:25;30.23;;;21.10;;
16826;SDS011;8530;49.540;8.576;2023-03-01T06:12:52;25.13;;;19.83;;
16826;SDS011;8530;49.540;8.576;2023-03-01T06:15:19;29.43;;;22.60;;
16826;SDS011;8530;49.540;8.576;2023-03-01T06:17:46;27.03;;;19.83;;
16826;SDS011;8530;49.540;8.576;2023-03-01T06:20:14;26.47;;;20.13;;
16826;SDS011;8530;49.540;8.576;2023-03-01T06:22:42;28.80;;;19.80;;
16826;SDS011;8530;49.540;8.576;2023-03-01T06:25:12;29.67;;;19.60;;
16826;SDS011;8530;49.540;8.576;2023-03-01T06:27:40;32.57;;;21.87;;
16826;SDS011;8530;49.540;8.576;2023-03-01T06:30:08;28.53;;;21.30;;
16826;SDS011;8530;49.540;8.576;2023-03-01T06:32:37;38.83;;;21.27;;
16826;SDS011;8530;49.540;8.576;2023-03-01T06:35:07;29.00;;;20.00;;
16826;SDS011;8530;49.540;8.576;2023-03-01T06:37:34;26.33;;;19.63;;
16826;SDS011;8530;49.540;8.576;2023-03-01T06:40:01;29.13;;;21.43;;
16826;SDS011;8530;49.540;8.576;2023-03-01T06:42:34;30.80;;;21.53;;
16826;SDS011;8530;49.540;8.576;2023-03-01T06:45:01;27.33;;;20.27;;
16826;SDS011;8530;49.540;8.576;2023-03-01T06:47:28;30.37;;;21.70;;
16826;SDS011;8530;49.540;8.576;2023-03-01T06:49:55;28.00;;;20.77;;
16826;SDS011;8530;49.540;8.576;2023-03-01T06:52:23;28.47;;;18.87;;
16826;SDS011;8530;49.540;8.576;2023-03-01T06:54:50;33.03;;;20.10;;
16826;SDS011;8530;49.540;8.576;2023-03-01T06:57:17;27.93;;;17.87;;
16826;SDS011;8530;49.540;8.576;2023-03-01T06:59:45;25.70;;;18.20;;
16826;SDS011;8530;49.540;8.576;2023-03-01T07:02:13;27.83;;;18.87;;
16826;SDS011;8530;49.540;8.576;2023-03-01T07:04:40;32.67;;;22.17;;
16826;SDS011;8530;49.540;8.576;2023-03-01T07:07:08;28.07;;;20.70;;
16826;SDS011;8530;49.540;8.576;2023-03-01T07:09:35;24.90;;;18.37;;
16826;SDS011;8530;49.540;8.576;2023-03-01T07:12:02;44.00;;;18.70;;
16826;SDS011;8530;49.540;8.576;2023-03-01T07:14:29;35.80;;;19.53;;
16826;SDS011;8530;49.540;8.576;2023-03-01T07:16:57;24.57;;;18.77;;
16826;SDS011;8530;49.540;8.576;2023-03-01T07:19:23;28.77;;;19.73;;
16826;SDS011;8530;49.540;8.576;2023-03-01T07:21:50;29.50;;;17.87;;
16826;SDS011;8530;49.540;8.576;2023-03-01T07:24:17;27.00;;;18.93;;
16826;SDS011;8530;49.540;8.576;2023-03-01T07:26:44;37.90;;;17.30;;
16826;SDS011;8530;49.540;8.576;2023-03-01T07:29:13;22.93;;;17.73;;
16826;SDS011;8530;49.540;8.576;2023-03-01T07:31:40;24.40;;;17.60;;
16826;SDS011;8530;49.540;8.576;2023-03-01T07:34:08;22.50;;;17.03;;
16826;SDS011;8530;49.540;8.576;2023-03-01T07:36:35;27.23;;;18.43;;
16826;SDS011;8530;49.540;8.576;2023-03-01T07:39:02;27.93;;;18.27;;
16826;SDS011;8530;49.540;8.576;2023-03-01T07:41:29;27.90;;;17.33;;
16826;SDS011;8530;49.540;8.576;2023-03-01T07:43:56;23.23;;;17.97;;
16826;SDS011;8530;49.540;8.576;2023-03-01T07:46:22;28.97;;;19.23;;
16826;SDS011;8530;49.540;8.576;2023-03-01T07:48:49;27.50;;;18.23;;
16826;SDS011;8530;49.540;8.576;2023-03-01T07:51:17;23.57;;;18.43;;
16826;SDS011;8530;49.540;8.576;2023-03-01T07:53:45;24.03;;;18.27;;
16826;SDS011;8530;49.540;8.576;2023-03-01T07:56:12;24.07;;;16.73;;
16826;SDS011;8530;49.540;8.576;2023-03-01T07:58:41;26.30;;;18.87;;
16826;SDS011;8530;49.540;8.576;2023-03-01T08:01:09;24.80;;;17.33;;
16826;SDS011;8530;49.540;8.576;2023-03-01T08:03:37;21.13;;;16.60;;
16826;SDS011;8530;49.540;8.576;2023-03-01T08:06:05;21.60;;;16.87;;
16826;SDS011;8530;49.540;8.576;2023-03-01T08:08:35;19.13;;;16.33;;
16826;SDS011;8530;49.540;8.576;2023-03-01T08:11:02;24.30;;;17.20;;
16826;SDS011;8530;49.540;8.576;2023-03-01T08:13:31;20.17;;;15.90;;
16826;SDS011;8530;49.540;8.576;2023-03-01T08:16:00;28.07;;;17.53;;
16826;SDS011;8530;49.540;8.576;2023-03-01T08:18:27;18.23;;;14.13;;
16826;SDS011;8530;49.540;8.576;2023-03-01T08:20:54;18.80;;;14.10;;
16826;SDS011;8530;49.540;8.576;2023-03-01T08:23:21;19.07;;;16.03;;
16826;SDS011;8530;49.540;8.576;2023-03-01T08:25:49;18.67;;;15.00;;
16826;SDS011;8530;49.540;8.576;2023-03-01T08:28:16;20.00;;;15.43;;
16826;SDS011;8530;49.540;8.576;2023-03-01T08:30:42;20.73;;;16.40;;
16826;SDS011;8530;49.540;8.576;2023-03-01T08:33:09;23.67;;;17.47;;
16826;SDS011;8530;49.540;8.576;2023-03-01T08:35:36;20.27;;;14.90;;
16826;SDS011;8530;49.540;8.576;2023-03-01T08:38:02;17.87;;;14.77;;
16826;SDS011;8530;49.540;8.576;2023-03-01T08:40:29;21.47;;;15.90;;
16826;SDS011;8530;49.540;8.576;2023-03-01T08:42:58;22.10;;;15.20;;
16826;SDS011;8530;49.540;8.576;2023-03-01T08:45:25;18.90;;;15.67;;
16826;SDS011;8530;49.540;8.576;2023-03-01T08:47:52;22.27;;;16.53;;
16826;SDS011;8530;49.540;8.576;2023-03-01T08:50:19;19.53;;;16.77;;
16826;SDS011;8530;49.540;8.576;2023-03-01T08:52:45;19.10;;;16.70;;
16826;SDS011;8530;49.540;8.576;2023-03-01T08:55:12;17.57;;;15.67;;
16826;SDS011;8530;49.540;8.576;2023-03-01T08:57:41;17.67;;;15.30;;
16826;SDS011;8530;49.540;8.576;2023-03-01T09:00:10;17.53;;;15.53;;
16826;SDS011;8530;49.540;8.576;2023-03-01T09:02:39;21.27;;;15.50;;
16826;SDS011;8530;49.540;8.576;2023-03-01T09:05:06;19.13;;;15.67;;
16826;SDS011;8530;49.540;8.576;2023-03-01T09:07:34;19.57;;;17.20;;
16826;SDS011;8530;49.540;8.576;2023-03-01T09:10:00;21.10;;;17.00;;
16826;SDS011;8530;49.540;8.576;2023-03-01T09:12:27;25.00;;;19.43;;
16826;SDS011;8530;49.540;8.576;2023-03-01T09:14:54;24.73;;;18.20;;
16826;SDS011;8530;49.540;8.576;2023-03-01T09:17:22;22.50;;;17.60;;
16826;SDS011;8530;49.540;8.576;2023-03-01T09:19:48;22.00;;;17.57;;
16826;SDS011;8530;49.540;8.576;2023-03-01T09:22:15;19.07;;;16.10;;
16826;SDS011;8530;49.540;8.576;2023-03-01T09:24:42;26.83;;;17.03;;
16826;SDS011;8530;49.540;8.576;2023-03-01T09:27:09;27.50;;;18.77;;
16826;SDS011;8530;49.540;8.576;2023-03-01T09:29:37;25.17;;;18.70;;
16826;SDS011;8530;49.540;8.576;2023-03-01T09:32:04;23.77;;;18.50;;
16826;SDS011;8530;49.540;8.576;2023-03-01T09:34:34;29.50;;;19.77;;
16826;SDS011;8530;49.540;8.576;2023-03-01T09:37:22;28.60;;;19.00;;
16826;SDS011;8530;49.540;8.576;2023-03-01T09:39:48;19.73;;;15.90;;
16826;SDS011;8530;49.540;8.576;2023-03-01T09:42:15;27.30;;;18.83;;
16826;SDS011;8530;49.540;8.576;2023-03-01T09:44:45;23.03;;;17.53;;
16826;SDS011;8530;49.540;8.576;2023-03-01T09:47:17;26.97;;;19.40;;
16826;SDS011;8530;49.540;8.576;2023-03-01T09:49:47;26.57;;;18.87;;
16826;SDS011;8530;49.540;8.576;2023-03-01T09:52:24;23.77;;;17.67;;
16826;SDS011;8530;49.540;8.576;2023-03-01T09:54:55;28.63;;;16.67;;
16826;SDS011;8530;49.540;8.576;2023-03-01T09:57:26;24.30;;;18.77;;
16826;SDS011;8530;49.540;8.576;2023-03-01T10:00:09;22.30;;;17.50;;
16826;SDS011;8530;49.540;8.576;2023-03-01T10:02:47;22.73;;;17.03;;
16826;SDS011;8530;49.540;8.576;2023-03-01T10:05:29;25.43;;;18.43;;
16826;SDS011;8530;49.540;8.576;2023-03-01T10:08:03;24.50;;;18.13;;
16826;SDS011;8530;49.540;8.576;2023-03-01T10:10:47;29.33;;;20.40;;
16826;SDS011;8530;49.540;8.576;2023-03-01T10:13:16;20.80;;;17.20;;
16826;SDS011;8530;49.540;8.576;2023-03-01T10:15:47;25.30;;;19.30;;
16826;SDS011;8530;49.540;8.576;2023-03-01T10:18:20;23.70;;;18.30;;
16826;SDS011;8530;49.540;8.576;2023-03-01T10:20:53;24.30;;;18.73;;
16826;SDS011;8530;49.540;8.576;2023-03-01T10:23:22;20.00;;;17.17;;
16826;SDS011;8530;49.540;8.576;2023-03-01T10:25:59;23.97;;;17.80;;
16826;SDS011;8530;49.540;8.576;2023-03-01T10:28:36;26.83;;;17.30;;
16826;SDS011;8530;49.540;8.576;2023-03-01T10:31:13;25.47;;;18.93;;
16826;SDS011;8530;49.540;8.576;2023-03-01T10:33:42;24.03;;;18.50;;
16826;SDS011;8530;49.540;8.576;2023-03-01T10:36:10;21.10;;;17.17;;
16826;SDS011;8530;49.540;8.576;2023-03-01T10:38:50;28.83;;;21.57;;
16826;SDS011;8530;49.540;8.576;2023-03-01T10:41:19;22.80;;;18.43;;
16826;SDS011;8530;49.540;8.576;2023-03-01T10:43:48;22.73;;;17.30;;
16826;SDS011;8530;49.540;8.576;2023-03-01T10:46:22;20.93;;;17.70;;
16826;SDS011;8530;49.540;8.576;2023-03-01T10:49:05;23.83;;;16.83;;
16826;SDS011;8530;49.540;8.576;2023-03-01T10:51:35;22.50;;;18.40;;
16826;SDS011;8530;49.540;8.576;2023-03-01T10:54:02;24.37;;;18.70;;
16826;SDS011;8530;49.540;8.576;2023-03-01T10:56:30;27.37;;;19.43;;
16826;SDS011;8530;49.540;8.576;2023-03-01T10:59:19;23.43;;;19.20;;
16826;SDS011;8530;49.540;8.576;2023-03-01T11:02:01;24.87;;;17.47;;
16826;SDS011;8530;49.540;8.576;2023-03-01T11:04:30;23.43;;;17.57;;
16826;SDS011;8530;49.540;8.576;2023-03-01T11:06:59;24.53;;;18.27;;
16826;SDS011;8530;49.540;8.576;2023-03-01T11:09:30;25.43;;;18.77;;
16826;SDS011;8530;49.540;8.576;2023-03-01T11:12:03;26.17;;;17.80;;
16826;SDS011;8530;49.540;8.576;2023-03-01T11:14:32;24.23;;;18.83;;
16826;SDS011;8530;49.540;8.576;2023-03-01T11:17:03;24.47;;;18.53;;
16826;SDS011;8530;49.540;8.576;2023-03-01T11:19:31;23.63;;;18.17;;
16826;SDS011;8530;49.540;8.576;2023-03-01T11:22:01;23.70;;;17.80;;
16826;SDS011;8530;49.540;8.576;2023-03-01T11:24:31;22.90;;;18.37;;
16826;SDS011;8530;49.540;8.576;2023-03-01T11:27:04;28.13;;;19.00;;
16826;SDS011;8530;49.540;8.576;2023-03-01T11:29:40;25.07;;;18.20;;
16826;SDS011;8530;49.540;8.576;2023-03-01T11:32:12;26.93;;;16.70;;
16826;SDS011;8530;49.540;8.576;2023-03-01T11:34:42;28.43;;;18.33;;
16826;SDS011;8530;49.540;8.576;2023-03-01T11:37:16;26.57;;;19.60;;
16826;SDS011;8530;49.540;8.576;2023-03-01T11:39:58;23.73;;;18.07;;
16826;SDS011;8530;49.540;8.576;2023-03-01T11:42:31;20.37;;;16.60;;
16826;SDS011;8530;49.540;8.576;2023-03-01T11:45:08;26.20;;;18.57;;
16826;SDS011;8530;49.540;8.576;2023-03-01T11:47:48;25.03;;;18.20;;
16826;SDS011;8530;49.540;8.576;2023-03-01T11:50:26;24.00;;;18.67;;
16826;SDS011;8530;49.540;8.576;2023-03-01T11:53:04;25.60;;;17.53;;
16826;SDS011;8530;49.540;8.576;2023-03-01T11:55:55;24.30;;;19.00;;
16826;SDS011;8530;49.540;8.576;2023-03-01T11:58:38;25.03;;;17.73;;
16826;SDS011;8530;49.540;8.576;2023-03-01T12:01:32;24.50;;;19.33;;
16826;SDS011;8530;49.540;8.576;2023-03-01T12:07:14;25.70;;;19.10;;
16826;SDS011;8530;49.540;8.576;2023-03-01T12:09:51;24.23;;;17.87;;
16826;SDS011;8530;49.540;8.576;2023-03-01T12:12:33;22.47;;;17.50;;
16826;SDS011;8530;49.540;8.576;2023-03-01T12:15:17;20.97;;;17.60;;
16826;SDS011;8530;49.540;8.576;2023-03-01T12:18:21;24.10;;;16.73;;
16826;SDS011;8530;49.540;8.576;2023-03-01T12:21:02;20.57;;;16.40;;
16826;SDS011;8530;49.540;8.576;2023-03-01T12:26:39;23.97;;;18.60;;
16826;SDS011;8530;49.540;8.576;2023-03-01T12:29:16;22.03;;;17.57;;
16826;SDS011;8530;49.540;8.576;2023-03-01T12:31:59;29.13;;;16.63;;
16826;SDS011;8530;49.540;8.576;2023-03-01T12:37:42;18.80;;;15.03;;
16826;SDS011;8530;49.540;8.576;2023-03-01T12:40:26;25.93;;;16.27;;
16826;SDS011;8530;49.540;8.576;2023-03-01T12:43:08;26.53;;;17.53;;
16826;SDS011;8530;49.540;8.576;2023-03-01T12:48:37;20.13;;;16.00;;
16826;SDS011;8530;49.540;8.576;2023-03-01T12:51:14;19.63;;;16.73;;
16826;SDS011;8530;49.540;8.576;2023-03-01T12:53:44;22.87;;;16.97;;
16826;SDS011;8530;49.540;8.576;2023-03-01T12:56:14;21.53;;;15.53;;
16826;SDS011;8530;49.540;8.576;2023-03-01T12:58:49;24.63;;;17.30;;
16826;SDS011;8530;49.540;8.576;2023-03-01T13:01:26;21.47;;;15.67;;
16826;SDS011;8530;49.540;8.576;2023-03-01T13:06:48;28.83;;;18.40;;
16826;SDS011;8530;49.540;8.576;2023-03-01T13:09:38;27.47;;;17.50;;
16826;SDS011;8530;49.540;8.576;2023-03-01T13:15:34;21.40;;;16.20;;
16826;SDS011;8530;49.540;8.576;2023-03-01T13:18:02;15.90;;;14.00;;
16826;SDS011;8530;49.540;8.576;2023-03-01T13:20:35;23.97;;;16.20;;
16826;SDS011;8530;49.540;8.576;2023-03-01T13:23:13;19.07;;;14.87;;
16826;SDS011;8530;49.540;8.576;2023-03-01T13:26:05;20.43;;;16.27;;
16826;SDS011;8530;49.540;8.576;2023-03-01T13:28:37;22.50;;;15.43;;
16826;SDS011;8530;49.540;8.576;2023-03-01T13:31:09;19.10;;;14.73;;
16826;SDS011;8530;49.540;8.576;2023-03-01T13:33:42;21.00;;;14.50;;
16826;SDS011;8530;49.540;8.576;2023-03-01T13:36:11;17.40;;;15.20;;
16826;SDS011;8530;49.540;8.576;2023-03-01T13:39:00;19.83;;;14.20;;
16826;SDS011;8530;49.540;8.576;2023-03-01T13:44:17;19.20;;;15.50;;
16826;SDS011;8530;49.540;8.576;2023-03-01T13:46:51;16.93;;;14.30;;
16826;SDS011;8530;49.540;8.576;2023-03-01T13:49:20;19.57;;;15.27;;
16826;SDS011;8530;49.540;8.576;2023-03-01T13:51:50;18.70;;;13.73;;
16826;SDS011;8530;49.540;8.576;2023-03-01T13:54:22;19.83;;;13.43;;
16826;SDS011;8530;49.540;8.576;2023-03-01T13:56:52;20.47;;;14.37;;
16826;SDS011;8530;49.540;8.576;2023-03-01T13:59:20;18.47;;;13.60;;
16826;SDS011;8530;49.540;8.576;2023-03-01T14:01:51;18.67;;;14.60;;
16826;SDS011;8530;49.540;8.576;2023-03-01T14:04:19;17.37;;;13.50;;
16826;SDS011;8530;49.540;8.576;2023-03-01T14:06:47;17.53;;;12.90;;
16826;SDS011;8530;49.540;8.576;2023-03-01T14:09:15;15.30;;;12.53;;
16826;SDS011;8530;49.540;8.576;2023-03-01T14:14:42;18.90;;;13.30;;
16826;SDS011;8530;49.540;8.576;2023-03-01T14:17:21;19.20;;;13.53;;
16826;SDS011;8530;49.540;8.576;2023-03-01T14:20:11;15.80;;;12.97;;
16826;SDS011;8530;49.540;8.576;2023-03-01T14:22:42;19.27;;;13.53;;
16826;SDS011;8530;49.540;8.576;2023-03-01T14:25:19;20.90;;;14.43;;
16826;SDS011;8530;49.540;8.576;2023-03-01T14:27:55;17.27;;;13.40;;
16826;SDS011;8530;49.540;8.576;2023-03-01T14:30:24;22.10;;;13.07;;
16826;SDS011;8530;49.540;8.576;2023-03-01T14:32:53;16.23;;;13.87;;
16826;SDS011;8530;49.540;8.576;2023-03-01T14:35:21;20.13;;;13.30;;
16826;SDS011;8530;49.540;8.576;2023-03-01T14:37:50;15.47;;;12.60;;
16826;SDS011;8530;49.540;8.576;2023-03-01T14:40:21;16.00;;;12.50;;
16826;SDS011;8530;49.540;8.576;2023-03-01T14:42:49;15.40;;;11.87;;
16826;SDS011;8530;49.540;8.576;2023-03-01T14:45:19;19.67;;;13.30;;
16826;SDS011;8530;49.540;8.576;2023-03-01T14:47:46;17.47;;;14.03;;
16826;SDS011;8530;49.540;8.576;2023-03-01T14:50:19;17.03;;;12.93;;
16826;SDS011;8530;49.540;8.576;2023-03-01T14:52:50;14.23;;;12.20;;
16826;SDS011;8530;49.540;8.576;2023-03-01T14:55:20;14.57;;;12.63;;
16826;SDS011;8530;49.540;8.576;2023-03-01T14:57:51;15.50;;;13.80;;
16826;SDS011;8530;49.540;8.576;2023-03-01T15:00:21;13.07;;;10.73;;
16826;SDS011;8530;49.540;8.576;2023-03-01T15:02:50;14.90;;;11.90;;
16826;SDS011;8530;49.540;8.576;2023-03-01T15:05:22;16.00;;;12.20;;
16826;SDS011;8530;49.540;8.576;2023-03-01T15:07:52;14.13;;;12.47;;
16826;SDS011;8530;49.540;8.576;2023-03-01T15:10:20;14.60;;;13.03;;
16826;SDS011;8530;49.540;8.576;2023-03-01T15:12:49;16.43;;;10.43;;
16826;SDS011;8530;49.540;8.576;2023-03-01T15:15:32;15.40;;;10.90;;